Time,TemperatureF,DewpointF,PressureIn,WindDirection,WindDirectionDegrees,WindSpeedMPH,WindSpeedGustMPH,Humidity,HourlyPrecipIn,Conditions,Clouds,dailyrainin,SoftwareType,DateUTC
2013-03-26 00:04:00,37.4,30.8,30.28,West,270,0.0,0.0,77,0.00,CLR,,0.00,WeatherDisplay:10.37,2013-03-26 05:04:00,
2013-03-26 00:09:00,37.4,30.8,30.28,West,270,0.0,0.0,77,0.00,CLR,,0.00,WeatherDisplay:10.37,2013-03-26 05:09:00,
2013-03-26 00:14:00,37.2,29.4,30.28,West,270,0.0,0.0,73,0.00,CLR,,0.00,WeatherDisplay:10.37,2013-03-26 05:14:00,
2013-03-26 00:19:00,37.0,29.2,30.28,West,270,0.0,0.0,73,0.00,CLR,,0.00,WeatherDisplay:10.37,2013-03-26 05:19:00,
2013-03-26 00:25:00,36.9,29.0,30.28,West,270,0.0,0.0,73,0.00,CLR,,0.00,WeatherDisplay:10.37,2013-03-26 05:25:00,
2013-03-26 00:30:00,37.0,28.8,30.28,West,270,0.0,0.0,72,0.00,CLR,,0.00,WeatherDisplay:10.37,2013-03-26 05:30:00,
2013-03-26 00:35:00,37.4,30.2,30.28,West,270,0.0,0.0,75,0.00,CLR,,0.00,WeatherDisplay:10.37,2013-03-26 05:35:00,
2013-03-26 00:40:00,37.6,29.4,30.28,West,270,0.0,0.0,72,0.00,CLR,,0.00,WeatherDisplay:10.37,2013-03-26 05:40:00,
2013-03-26 00:45:00,37.6,29.0,30.28,West,270,0.0,0.0,71,0.00,CLR,,0.00,WeatherDisplay:10.37,2013-03-26 05:45:00,
2013-03-26 00:50:00,37.6,29.0,30.28,West,270,0.0,0.0,71,0.00,CLR,,0.00,WeatherDisplay:10.37,2013-03-26 05:50:00,
2013-03-26 00:56:00,37.6,29.0,30.28,West,270,0.0,0.0,71,0.00,CLR,,0.00,WeatherDisplay:10.37,2013-03-26 05:56:00,
2013-03-26 01:01:00,37.6,29.0,30.28,West,270,0.0,0.0,71,0.00,CLR,,0.00,WeatherDisplay:10.37,2013-03-26 06:01:00,
2013-03-26 01:06:00,37.6,29.0,30.28,West,270,0.0,0.0,71,0.00,CLR,,0.00,WeatherDisplay:10.37,2013-03-26 06:06:00,
2013-03-26 01:11:00,37.9,28.3,30.28,West,270,0.0,0.0,68,0.00,CLR,,0.00,WeatherDisplay:10.37,2013-03-26 06:11:00,
2013-03-26 01:16:00,38.1,28.1,30.28,West,270,0.0,0.0,67,0.00,CLR,,0.00,WeatherDisplay:10.37,2013-03-26 06:16:00,
2013-03-26 01:21:00,38.1,27.4,30.28,West,270,0.0,0.0,65,0.00,CLR,,0.00,WeatherDisplay:10.37,2013-03-26 06:21:00,
2013-03-26 01:26:00,38.3,26.0,30.27,West,270,0.0,0.0,61,0.00,CLR,,0.00,WeatherDisplay:10.37,2013-03-26 06:26:00,
2013-03-26 01:31:00,38.3,25.6,30.28,West,270,0.0,0.0,60,0.00,CLR,,0.00,WeatherDisplay:10.37,2013-03-26 06:31:00,
2013-03-26 01:37:00,38.3,24.8,30.28,West,270,0.0,0.0,58,0.00,CLR,,0.00,WeatherDisplay:10.37,2013-03-26 06:37:00,
2013-03-26 01:42:00,38.1,24.6,30.28,West,270,0.0,0.0,58,0.00,CLR,,0.00,WeatherDisplay:10.37,2013-03-26 06:42:00,
2013-03-26 01:47:00,38.1,24.2,30.28,West,270,0.0,0.0,57,0.00,CLR,,0.00,WeatherDisplay:10.37,2013-03-26 06:47:00,
2013-03-26 01:52:00,37.9,24.5,30.28,West,270,0.0,0.0,58,0.00,CLR,,0.00,WeatherDisplay:10.37,2013-03-26 06:52:00,
2013-03-26 01:57:00,37.9,25.3,30.28,West,270,0.0,0.0,60,0.00,CLR,,0.00,WeatherDisplay:10.37,2013-03-26 06:57:00,
2013-03-26 02:02:00,37.8,25.9,30.27,West,270,0.0,0.0,62,0.00,CLR,,0.00,WeatherDisplay:10.37,2013-03-26 07:02:00,
2013-03-26 02:07:00,37.4,26.3,30.27,West,270,0.0,0.0,64,0.00,CLR,,0.00,WeatherDisplay:10.37,2013-03-26 07:07:00,
2013-03-26 02:13:00,37.0,24.8,30.28,West,270,0.0,0.0,61,0.00,CLR,,0.00,WeatherDisplay:10.37,2013-03-26 07:13:00,
2013-03-26 02:18:00,36.9,24.7,30.27,West,270,0.0,0.0,61,0.00,CLR,,0.00,WeatherDisplay:10.37,2013-03-26 07:18:00,
2013-03-26 02:23:00,36.3,24.1,30.27,SW,225,0.0,0.0,61,0.00,CLR,,0.00,WeatherDisplay:10.37,2013-03-26 07:23:00,
2013-03-26 02:28:00,36.0,24.2,30.27,SW,225,0.0,0.0,62,0.00,CLR,,0.00,WeatherDisplay:10.37,2013-03-26 07:28:00,
2013-03-26 02:34:00,35.6,23.9,30.27,SW,225,0.0,0.0,62,0.00,CLR,,0.00,WeatherDisplay:10.37,2013-03-26 07:34:00,
2013-03-26 02:39:00,35.1,24.1,30.27,SW,225,0.0,0.0,64,0.00,CLR,,0.00,WeatherDisplay:10.37,2013-03-26 07:39:00,
2013-03-26 02:44:00,34.7,24.5,30.28,SW,225,0.0,0.0,66,0.00,CLR,,0.00,WeatherDisplay:10.37,2013-03-26 07:44:00,
2013-03-26 02:49:00,34.5,24.7,30.27,SW,225,0.0,0.0,67,0.00,CLR,,0.00,WeatherDisplay:10.37,2013-03-26 07:49:00,
2013-03-26 02:54:00,34.3,25.2,30.27,SW,225,0.0,0.0,69,0.00,CLR,,0.00,WeatherDisplay:10.37,2013-03-26 07:54:00,
2013-03-26 02:59:00,34.2,25.4,30.27,SW,225,0.0,0.0,70,0.00,CLR,,0.00,WeatherDisplay:10.37,2013-03-26 07:59:00,
2013-03-26 03:04:00,34.0,25.2,30.27,SW,225,0.0,0.0,70,0.00,CLR,,0.00,WeatherDisplay:10.37,2013-03-26 08:04:00,
2013-03-26 03:09:00,33.6,25.8,30.27,SW,225,0.0,0.0,73,0.00,CLR,,0.00,WeatherDisplay:10.37,2013-03-26 08:09:00,
2013-03-26 03:14:00,33.3,25.5,30.27,SSW,200,0.0,0.0,73,0.00,CLR,,0.00,WeatherDisplay:10.37,2013-03-26 08:14:00,
2013-03-26 03:19:00,33.0,25.3,30.27,South,180,0.0,0.0,73,0.00,CLR,,0.00,WeatherDisplay:10.37,2013-03-26 08:19:00,
2013-03-26 03:24:00,32.8,25.1,30.27,South,180,0.0,0.0,73,0.00,CLR,,0.00,WeatherDisplay:10.37,2013-03-26 08:24:00,
2013-03-26 03:30:00,32.7,25.3,30.26,South,180,0.0,0.0,74,0.00,CLR,,0.00,WeatherDisplay:10.37,2013-03-26 08:30:00,
2013-03-26 03:35:00,32.5,25.2,30.27,South,180,0.0,0.0,74,0.00,CLR,,0.00,WeatherDisplay:10.37,2013-03-26 08:35:00,
2013-03-26 03:40:00,32.2,24.8,30.27,South,180,0.0,0.0,74,0.00,CLR,,0.00,WeatherDisplay:10.37,2013-03-26 08:40:00,
2013-03-26 03:45:00,32.2,24.8,30.27,North,0,0.0,0.0,74,0.00,CLR,,0.00,WeatherDisplay:10.37,2013-03-26 08:45:00,
2013-03-26 03:51:00,32.2,25.1,30.26,North,0,0.0,0.0,75,0.00,CLR,,0.00,WeatherDisplay:10.37,2013-03-26 08:51:00,
2013-03-26 03:56:00,32.0,25.0,30.26,East,90,0.0,0.0,75,0.00,CLR,,0.00,WeatherDisplay:10.37,2013-03-26 08:56:00,
2013-03-26 04:01:00,31.6,24.9,30.26,East,90,0.0,0.0,76,0.00,CLR,,0.00,WeatherDisplay:10.37,2013-03-26 09:01:00,
2013-03-26 04:06:00,31.5,25.1,30.26,North,0,0.0,0.0,77,0.00,CLR,,0.00,WeatherDisplay:10.37,2013-03-26 09:06:00,
2013-03-26 04:11:00,31.3,24.9,30.26,East,90,0.0,0.0,77,0.00,CLR,,0.00,WeatherDisplay:10.37,2013-03-26 09:11:00,
2013-03-26 04:17:00,30.9,24.9,30.26,NW,315,0.0,0.0,78,0.00,CLR,,0.00,WeatherDisplay:10.37,2013-03-26 09:17:00,
2013-03-26 04:22:00,30.6,24.8,30.26,NW,315,0.0,0.0,79,0.00,CLR,,0.00,WeatherDisplay:10.37,2013-03-26 09:22:00,
2013-03-26 04:27:00,30.6,25.1,30.26,NW,315,0.0,0.0,80,0.00,CLR,,0.00,WeatherDisplay:10.37,2013-03-26 09:27:00,
2013-03-26 04:32:00,30.4,25.2,30.26,NW,315,0.0,0.0,81,0.00,CLR,,0.00,WeatherDisplay:10.37,2013-03-26 09:32:00,
2013-03-26 04:37:00,30.2,25.1,30.26,NW,315,0.0,0.0,81,0.00,CLR,,0.00,WeatherDisplay:10.37,2013-03-26 09:37:00,
2013-03-26 04:42:00,30.0,25.2,30.26,SE,135,0.0,0.0,82,0.00,CLR,,0.00,WeatherDisplay:10.37,2013-03-26 09:42:00,
2013-03-26 04:47:00,29.8,25.0,30.26,SE,135,0.0,0.0,82,0.00,CLR,,0.00,WeatherDisplay:10.37,2013-03-26 09:47:00,
2013-03-26 04:52:00,29.7,25.1,30.26,SE,135,0.0,0.0,83,0.00,CLR,,0.00,WeatherDisplay:10.37,2013-03-26 09:52:00,
2013-03-26 04:58:00,29.5,25.0,30.27,SE,135,0.0,0.0,83,0.00,CLR,,0.00,WeatherDisplay:10.37,2013-03-26 09:58:00,
2013-03-26 05:03:00,29.5,25.0,30.26,SE,135,0.0,0.0,83,0.00,CLR,,0.00,WeatherDisplay:10.37,2013-03-26 10:03:00,
2013-03-26 05:08:00,29.3,25.1,30.27,SE,135,0.0,0.0,84,0.00,CLR,,0.00,WeatherDisplay:10.37,2013-03-26 10:08:00,
2013-03-26 05:13:00,29.3,25.4,30.27,SE,135,0.0,0.0,85,0.00,CLR,,0.00,WeatherDisplay:10.37,2013-03-26 10:13:00,
2013-03-26 05:19:00,29.1,25.2,30.27,SE,135,0.0,0.0,85,0.00,CLR,,0.00,WeatherDisplay:10.37,2013-03-26 10:19:00,
2013-03-26 05:24:00,29.1,25.5,30.27,North,0,0.0,0.0,86,0.00,CLR,,0.00,WeatherDisplay:10.37,2013-03-26 10:24:00,
2013-03-26 05:29:00,28.8,25.4,30.27,NW,315,0.0,0.0,87,0.00,CLR,,0.00,WeatherDisplay:10.37,2013-03-26 10:29:00,
2013-03-26 05:34:00,28.6,25.2,30.27,NW,315,0.0,0.0,87,0.00,CLR,,0.00,WeatherDisplay:10.37,2013-03-26 10:34:00,
2013-03-26 05:39:00,28.4,25.3,30.28,NW,315,0.0,0.0,88,0.00,CLR,,0.00,WeatherDisplay:10.37,2013-03-26 10:39:00,
2013-03-26 05:44:00,28.0,23.8,30.28,NW,315,0.0,0.0,84,0.00,CLR,,0.00,WeatherDisplay:10.37,2013-03-26 10:44:00,
2013-03-26 05:49:00,27.9,23.7,30.28,NW,315,0.0,0.0,84,0.00,CLR,,0.00,WeatherDisplay:10.37,2013-03-26 10:49:00,
2013-03-26 05:55:00,27.9,23.9,30.28,NW,315,0.0,0.0,85,0.00,CLR,,0.00,WeatherDisplay:10.37,2013-03-26 10:55:00,
2013-03-26 06:00:00,27.7,23.8,30.28,NW,315,0.0,0.0,85,0.00,CLR,,0.00,WeatherDisplay:10.37,2013-03-26 11:00:00,
2013-03-26 06:05:00,27.7,23.8,30.28,NW,315,0.0,0.0,85,0.00,CLR,,0.00,WeatherDisplay:10.37,2013-03-26 11:05:00,
2013-03-26 06:10:00,27.7,23.8,30.28,NW,315,0.0,0.0,85,0.00,CLR,,0.00,WeatherDisplay:10.37,2013-03-26 11:10:00,
2013-03-26 06:15:00,27.7,24.0,30.29,NW,315,0.0,0.0,86,0.00,CLR,,0.00,WeatherDisplay:10.37,2013-03-26 11:15:00,
2013-03-26 06:21:00,27.5,23.9,30.29,NW,315,0.0,0.0,86,0.00,CLR,,0.00,WeatherDisplay:10.37,2013-03-26 11:21:00,
2013-03-26 06:26:00,27.3,23.7,30.29,NW,315,0.0,0.0,86,0.00,CLR,,0.00,WeatherDisplay:10.37,2013-03-26 11:26:00,
2013-03-26 06:31:00,27.3,23.7,30.29,NW,315,0.0,0.0,86,0.00,CLR,,0.00,WeatherDisplay:10.37,2013-03-26 11:31:00,
2013-03-26 06:36:00,27.3,23.7,30.29,NW,315,0.0,0.0,86,0.00,CLR,,0.00,WeatherDisplay:10.37,2013-03-26 11:36:00,
2013-03-26 06:41:00,27.3,24.0,30.30,NW,315,0.0,0.0,87,0.00,CLR,,0.00,WeatherDisplay:10.37,2013-03-26 11:41:00,
2013-03-26 06:46:00,27.3,24.0,30.30,NW,315,0.0,0.0,87,0.00,CLR,,0.00,WeatherDisplay:10.37,2013-03-26 11:46:00,
2013-03-26 06:51:00,27.1,24.1,30.30,NW,315,0.0,0.0,88,0.00,CLR,,0.00,WeatherDisplay:10.37,2013-03-26 11:51:00,
2013-03-26 06:57:00,27.1,24.1,30.30,NW,315,0.0,0.0,88,0.00,CLR,,0.00,WeatherDisplay:10.37,2013-03-26 11:57:00,
2013-03-26 07:02:00,27.0,23.9,30.31,NW,315,0.0,0.0,88,0.00,CLR,,0.00,WeatherDisplay:10.37,2013-03-26 12:02:00,
2013-03-26 07:07:00,26.8,23.7,30.31,NW,315,0.0,0.0,88,0.00,CLR,,0.00,WeatherDisplay:10.37,2013-03-26 12:07:00,
2013-03-26 07:12:00,26.8,23.7,30.31,NW,315,0.0,0.0,88,0.00,CLR,,0.00,WeatherDisplay:10.37,2013-03-26 12:12:00,
2013-03-26 07:18:00,26.8,24.0,30.31,NW,315,0.0,0.0,89,0.00,CLR,,0.00,WeatherDisplay:10.37,2013-03-26 12:18:00,
2013-03-26 07:23:00,26.8,24.0,30.32,NW,315,0.0,0.0,89,0.00,CLR,,0.00,WeatherDisplay:10.37,2013-03-26 12:23:00,
2013-03-26 07:28:00,26.8,24.2,30.32,NW,315,0.0,0.0,90,0.00,CLR,,0.00,WeatherDisplay:10.37,2013-03-26 12:28:00,
2013-03-26 07:34:00,26.8,24.2,30.32,NW,315,0.0,0.0,90,0.00,CLR,,0.00,WeatherDisplay:10.37,2013-03-26 12:34:00,
2013-03-26 07:39:00,27.0,24.4,30.32,NW,315,0.0,0.0,90,0.00,CLR,,0.00,WeatherDisplay:10.37,2013-03-26 12:39:00,
2013-03-26 07:44:00,27.1,24.9,30.33,NW,315,0.0,0.0,91,0.00,CLR,,0.00,WeatherDisplay:10.37,2013-03-26 12:44:00,
2013-03-26 07:49:00,27.3,25.0,30.33,NW,315,0.0,0.0,91,0.00,CLR,,0.00,WeatherDisplay:10.37,2013-03-26 12:49:00,
2013-03-26 07:54:00,27.3,25.0,30.33,NW,315,0.0,0.0,91,0.00,CLR,,0.00,WeatherDisplay:10.37,2013-03-26 12:54:00,
2013-03-26 07:59:00,27.7,25.4,30.33,NW,315,0.0,0.0,91,0.00,CLR,,0.00,WeatherDisplay:10.37,2013-03-26 12:59:00,
2013-03-26 08:04:00,27.9,25.8,30.34,NW,315,0.0,0.0,92,0.00,CLR,,0.00,WeatherDisplay:10.37,2013-03-26 13:04:00,
2013-03-26 08:09:00,28.3,26.5,30.33,NW,315,0.0,0.0,93,0.00,CLR,,0.00,WeatherDisplay:10.37,2013-03-26 13:09:00,
2013-03-26 08:14:00,28.6,27.6,30.34,NW,315,0.0,0.0,96,0.00,CLR,,0.00,WeatherDisplay:10.37,2013-03-26 13:14:00,
2013-03-26 08:19:00,29.1,28.1,30.34,NW,315,0.0,0.0,96,0.00,CLR,,0.00,WeatherDisplay:10.37,2013-03-26 13:19:00,
2013-03-26 08:24:00,29.6,28.8,30.34,NW,315,0.0,0.0,97,0.00,CLR,,0.00,WeatherDisplay:10.37,2013-03-26 13:24:00,
2013-03-26 08:29:00,30.2,29.2,30.34,NW,315,0.0,0.0,96,0.00,CLR,,0.00,WeatherDisplay:10.37,2013-03-26 13:29:00,
2013-03-26 08:34:00,30.8,29.8,30.35,NW,315,0.0,0.0,96,0.00,CLR,,0.00,WeatherDisplay:10.37,2013-03-26 13:34:00,
2013-03-26 08:39:00,31.6,30.6,30.35,NW,315,0.0,0.0,96,0.00,CLR,,0.00,WeatherDisplay:10.37,2013-03-26 13:39:00,
2013-03-26 08:44:00,32.4,31.2,30.35,WNW,294,0.0,0.0,95,0.00,CLR,,0.00,WeatherDisplay:10.37,2013-03-26 13:44:00,
2013-03-26 08:49:00,33.4,32.1,30.36,West,271,0.0,0.0,95,0.00,CLR,,0.00,WeatherDisplay:10.37,2013-03-26 13:49:00,
2013-03-26 08:54:00,34.6,33.0,30.36,West,270,0.0,0.0,94,0.00,CLR,,0.00,WeatherDisplay:10.37,2013-03-26 13:54:00,
2013-03-26 08:59:00,36.2,34.1,30.37,West,262,0.0,0.0,92,0.00,CLR,,0.00,WeatherDisplay:10.37,2013-03-26 13:59:00,
2013-03-26 09:04:00,38.4,36.8,30.36,WNW,282,0.0,0.0,94,0.00,CLR,,0.00,WeatherDisplay:10.37,2013-03-26 14:04:00,
2013-03-26 09:09:00,40.2,37.2,30.37,NW,308,0.0,0.0,89,0.00,CLR,,0.00,WeatherDisplay:10.37,2013-03-26 14:09:00,
2013-03-26 09:14:00,41.0,36.2,30.37,WNW,292,0.0,0.0,83,0.00,CLR,,0.00,WeatherDisplay:10.37,2013-03-26 14:14:00,
2013-03-26 09:19:00,41.4,34.4,30.37,NNW,343,0.0,0.0,76,0.00,CLR,,0.00,WeatherDisplay:10.37,2013-03-26 14:19:00,
2013-03-26 09:24:00,41.5,34.5,30.37,East,82,0.0,2.0,76,0.00,CLR,,0.00,WeatherDisplay:10.37,2013-03-26 14:24:00,
2013-03-26 09:29:00,43.4,30.0,30.37,ENE,74,0.0,2.0,59,0.00,CLR,,0.00,WeatherDisplay:10.37,2013-03-26 14:29:00,
2013-03-26 09:34:00,44.2,29.5,30.37,NW,325,1.0,3.0,56,0.00,CLR,,0.00,WeatherDisplay:10.37,2013-03-26 14:34:00,
2013-03-26 09:39:00,44.8,28.7,30.38,North,359,1.0,3.0,53,0.00,CLR,,0.00,WeatherDisplay:10.37,2013-03-26 14:39:00,
2013-03-26 09:44:00,45.5,28.9,30.38,North,6,1.0,3.0,52,0.00,CLR,,0.00,WeatherDisplay:10.37,2013-03-26 14:44:00,
2013-03-26 09:49:00,45.5,27.9,30.38,NW,319,1.0,4.0,50,0.00,CLR,,0.00,WeatherDisplay:10.37,2013-03-26 14:49:00,
2013-03-26 09:54:00,46.2,27.1,30.38,SW,225,1.1,0.0,47,0.00,CLR,,0.00,WeatherDisplay:10.37,2013-03-26 14:54:00,
2013-03-26 10:00:00,47.3,28.1,30.38,NW,315,3.5,3.5,47,0.00,CLR,,0.00,WeatherDisplay:10.37,2013-03-26 15:00:00,
2013-03-26 10:05:00,46.9,25.6,30.38,NW,315,4.6,4.6,43,0.00,CLR,,0.00,WeatherDisplay:10.37,2013-03-26 15:05:00,
2013-03-26 10:10:00,47.3,25.3,30.38,West,270,4.6,4.6,42,0.00,CLR,,0.00,WeatherDisplay:10.37,2013-03-26 15:10:00,
2013-03-26 10:15:00,47.8,26.4,30.38,NE,45,3.5,3.5,43,0.00,CLR,,0.00,WeatherDisplay:10.37,2013-03-26 15:15:00,
2013-03-26 10:20:00,48.0,24.8,30.38,WNW,292,2.3,2.3,40,0.00,CLR,,0.00,WeatherDisplay:10.37,2013-03-26 15:20:00,
2013-03-26 10:25:00,49.1,26.4,30.38,North,0,3.5,3.5,41,0.00,CLR,,0.00,WeatherDisplay:10.37,2013-03-26 15:25:00,
2013-03-26 10:30:00,50.4,26.9,30.37,North,0,4.6,4.6,40,0.00,CLR,,0.00,WeatherDisplay:10.37,2013-03-26 15:30:00,
2013-03-26 10:35:00,50.4,25.7,30.37,North,0,3.5,3.5,38,0.00,CLR,,0.00,WeatherDisplay:10.37,2013-03-26 15:35:00,
2013-03-26 10:40:00,51.4,28.5,30.37,East,90,5.8,5.8,41,0.00,CLR,,0.00,WeatherDisplay:10.37,2013-03-26 15:40:00,
2013-03-26 10:46:00,51.8,25.7,30.37,SW,225,3.5,3.5,36,0.00,CLR,,0.00,WeatherDisplay:10.37,2013-03-26 15:46:00,
2013-03-26 10:51:00,52.2,23.9,30.37,East,90,3.5,3.5,33,0.00,CLR,,0.00,WeatherDisplay:10.37,2013-03-26 15:51:00,
2013-03-26 10:56:00,52.0,23.7,30.37,NW,315,3.5,3.5,33,0.00,CLR,,0.00,WeatherDisplay:10.37,2013-03-26 15:56:00,
2013-03-26 11:01:00,52.2,23.2,30.37,West,270,3.5,3.5,32,0.00,CLR,,0.00,WeatherDisplay:10.37,2013-03-26 16:01:00,
2013-03-26 11:06:00,52.2,23.2,30.37,West,270,3.5,3.5,32,0.00,CLR,,0.00,WeatherDisplay:10.37,2013-03-26 16:06:00,
2013-03-26 11:12:00,51.8,24.3,30.37,East,90,1.1,3.1,34,0.00,CLR,,0.00,WeatherDisplay:10.37,2013-03-26 16:12:00,
2013-03-26 11:17:00,51.6,23.4,30.37,North,0,4.6,4.6,33,0.00,CLR,,0.00,WeatherDisplay:10.37,2013-03-26 16:17:00,
2013-03-26 11:22:00,52.3,24.0,30.36,NW,315,2.3,2.3,33,0.00,CLR,,0.00,WeatherDisplay:10.37,2013-03-26 16:22:00,
2013-03-26 11:27:00,52.7,23.6,30.36,NNE,22,4.6,4.6,32,0.00,CLR,,0.00,WeatherDisplay:10.37,2013-03-26 16:27:00,
2013-03-26 11:32:00,52.2,21.6,30.36,NE,45,5.8,5.8,30,0.00,CLR,,0.00,WeatherDisplay:10.37,2013-03-26 16:32:00,
2013-03-26 11:37:00,52.2,22.4,30.36,NW,315,5.8,5.8,31,0.00,CLR,,0.00,WeatherDisplay:10.37,2013-03-26 16:37:00,
2013-03-26 11:42:00,52.0,22.2,30.36,NE,45,4.6,4.6,31,0.00,CLR,,0.00,WeatherDisplay:10.37,2013-03-26 16:42:00,
2013-03-26 11:48:00,52.3,23.3,30.36,South,180,3.5,3.5,32,0.00,CLR,,0.00,WeatherDisplay:10.37,2013-03-26 16:48:00,
2013-03-26 11:53:00,52.5,23.5,30.36,North,0,3.5,3.5,32,0.00,CLR,,0.00,WeatherDisplay:10.37,2013-03-26 16:53:00,
2013-03-26 11:58:00,53.2,24.8,30.35,West,270,4.6,4.6,33,0.00,CLR,,0.00,WeatherDisplay:10.37,2013-03-26 16:58:00,
2013-03-26 12:03:00,53.2,23.3,30.35,NE,45,4.6,4.6,31,0.00,CLR,,0.00,WeatherDisplay:10.37,2013-03-26 17:03:00,
2013-03-26 12:08:00,53.2,22.6,30.35,NW,315,4.6,4.6,30,0.00,CLR,,0.00,WeatherDisplay:10.37,2013-03-26 17:08:00,
2013-03-26 12:13:00,53.8,22.2,30.34,NW,315,3.5,3.5,29,0.00,CLR,,0.00,WeatherDisplay:10.37,2013-03-26 17:13:00,
2013-03-26 12:19:00,54.7,23.0,30.34,North,0,2.3,2.3,29,0.00,CLR,,0.00,WeatherDisplay:10.37,2013-03-26 17:19:00,
2013-03-26 12:24:00,55.4,23.6,30.34,West,270,4.6,4.6,29,0.00,CLR,,0.00,WeatherDisplay:10.37,2013-03-26 17:24:00,
2013-03-26 12:29:00,54.7,21.3,30.34,SE,135,5.8,5.8,27,0.00,CLR,,0.00,WeatherDisplay:10.37,2013-03-26 17:29:00,
2013-03-26 12:34:00,55.2,21.8,30.33,North,0,4.6,4.6,27,0.00,CLR,,0.00,WeatherDisplay:10.37,2013-03-26 17:34:00,
2013-03-26 12:39:00,55.6,23.8,30.34,NE,54,3.0,5.0,29,0.00,CLR,,0.00,WeatherDisplay:10.37,2013-03-26 17:39:00,
2013-03-26 12:44:00,56.2,24.3,30.33,NNE,32,1.0,4.0,29,0.00,CLR,,0.00,WeatherDisplay:10.37,2013-03-26 17:44:00,
2013-03-26 12:49:00,55.8,23.2,30.33,ENE,67,2.0,6.0,28,0.00,CLR,,0.00,WeatherDisplay:10.37,2013-03-26 17:49:00,
2013-03-26 12:54:00,56.2,23.5,30.32,NE,44,1.0,5.0,28,0.00,CLR,,0.00,WeatherDisplay:10.37,2013-03-26 17:54:00,
2013-03-26 12:59:00,57.0,24.2,30.33,North,350,2.0,6.0,28,0.00,CLR,,0.00,WeatherDisplay:10.37,2013-03-26 17:59:00,
2013-03-26 13:04:00,57.0,24.2,30.32,NW,310,2.0,5.0,28,0.00,CLR,,0.00,WeatherDisplay:10.37,2013-03-26 18:04:00,
2013-03-26 13:09:00,56.9,24.1,30.32,WSW,255,2.0,5.0,28,0.00,CLR,,0.00,WeatherDisplay:10.37,2013-03-26 18:09:00,
2013-03-26 13:14:00,57.0,24.2,30.32,NNW,347,2.0,5.0,28,0.00,CLR,,0.00,WeatherDisplay:10.37,2013-03-26 18:14:00,
2013-03-26 13:19:00,58.2,23.4,30.31,North,356,2.0,5.0,26,0.00,CLR,,0.00,WeatherDisplay:10.37,2013-03-26 18:19:00,
2013-03-26 13:24:00,59.0,23.2,30.31,WNW,302,1.0,5.0,25,0.00,CLR,,0.00,WeatherDisplay:10.37,2013-03-26 18:24:00,
2013-03-26 13:29:00,59.0,23.2,30.31,NNE,31,2.0,6.0,25,0.00,CLR,,0.00,WeatherDisplay:10.37,2013-03-26 18:29:00,
2013-03-26 13:34:00,59.4,22.5,30.30,NNW,341,2.0,8.0,24,0.00,CLR,,0.00,WeatherDisplay:10.37,2013-03-26 18:34:00,
2013-03-26 13:39:00,59.5,22.7,30.30,West,272,1.0,8.0,24,0.00,CLR,,0.00,WeatherDisplay:10.37,2013-03-26 18:39:00,
2013-03-26 13:44:00,60.6,24.6,30.30,NW,315,2.3,2.3,25,0.00,CLR,,0.00,WeatherDisplay:10.37,2013-03-26 18:44:00,
2013-03-26 13:49:00,61.7,23.5,30.30,West,276,3.0,6.0,23,0.00,CLR,,0.00,WeatherDisplay:10.37,2013-03-26 18:49:00,
2013-03-26 13:54:00,61.5,23.3,30.30,SE,124,2.0,6.0,23,0.00,CLR,,0.00,WeatherDisplay:10.37,2013-03-26 18:54:00,
2013-03-26 13:59:00,61.3,23.2,30.29,South,180,4.6,4.6,23,0.00,CLR,,0.00,WeatherDisplay:10.37,2013-03-26 18:59:00,
2013-03-26 14:04:00,61.9,23.6,30.29,NE,47,2.0,6.0,23,0.00,CLR,,0.00,WeatherDisplay:10.37,2013-03-26 19:04:00,
2013-03-26 14:09:00,62.6,24.2,30.29,NNW,333,2.0,6.0,23,0.00,CLR,,0.00,WeatherDisplay:10.37,2013-03-26 19:09:00,
2013-03-26 14:14:00,62.8,23.3,30.28,NW,318,1.0,6.0,22,0.00,CLR,,0.00,WeatherDisplay:10.37,2013-03-26 19:14:00,
2013-03-26 14:19:00,63.1,23.6,30.29,West,270,5.8,5.8,22,0.00,CLR,,0.00,WeatherDisplay:10.37,2013-03-26 19:19:00,
2013-03-26 14:24:00,62.8,23.4,30.28,NW,326,2.0,5.0,22,0.00,CLR,,0.00,WeatherDisplay:10.37,2013-03-26 19:24:00,
2013-03-26 14:29:00,63.0,22.4,30.28,WNW,291,3.0,8.0,21,0.00,CLR,,0.00,WeatherDisplay:10.37,2013-03-26 19:29:00,
2013-03-26 14:34:00,62.8,23.3,30.28,West,270,4.6,4.6,22,0.00,CLR,,0.00,WeatherDisplay:10.37,2013-03-26 19:34:00,
2013-03-26 14:39:00,62.4,23.0,30.27,West,277,1.0,6.0,22,0.00,CLR,,0.00,WeatherDisplay:10.37,2013-03-26 19:39:00,
2013-03-26 14:44:00,62.2,22.9,30.27,SW,225,5.8,5.8,22,0.00,CLR,,0.00,WeatherDisplay:10.37,2013-03-26 19:44:00,
2013-03-26 14:49:00,64.1,24.5,30.26,North,9,2.0,5.0,22,0.00,CLR,,0.00,WeatherDisplay:10.37,2013-03-26 19:49:00,
2013-03-26 14:54:00,64.4,24.7,30.26,NNW,338,5.8,5.8,22,0.00,CLR,,0.00,WeatherDisplay:10.37,2013-03-26 19:54:00,
2013-03-26 14:59:00,63.9,23.1,30.26,NNE,14,2.0,6.0,21,0.00,CLR,,0.00,WeatherDisplay:10.37,2013-03-26 19:59:00,
2013-03-26 15:04:00,63.9,23.1,30.26,North,349,2.0,5.0,21,0.00,CLR,,0.00,WeatherDisplay:10.37,2013-03-26 20:04:00,
2013-03-26 15:09:00,64.3,23.5,30.26,NW,310,1.0,5.0,21,0.00,CLR,,0.00,WeatherDisplay:10.37,2013-03-26 20:09:00,
2013-03-26 15:14:00,64.4,24.7,30.25,WNW,297,1.0,6.0,22,0.00,CLR,,0.00,WeatherDisplay:10.37,2013-03-26 20:14:00,
2013-03-26 15:19:00,65.9,25.9,30.25,NW,307,2.0,5.0,22,0.00,CLR,,0.00,WeatherDisplay:10.37,2013-03-26 20:19:00,
2013-03-26 15:24:00,66.4,25.2,30.25,NW,308,1.0,5.0,21,0.00,CLR,,0.00,WeatherDisplay:10.37,2013-03-26 20:24:00,
2013-03-26 15:29:00,66.9,24.5,30.25,NW,312,2.0,5.0,20,0.00,CLR,,0.00,WeatherDisplay:10.37,2013-03-26 20:29:00,
2013-03-26 15:34:00,65.2,24.3,30.25,NW,310,2.0,6.0,21,0.00,CLR,,0.00,WeatherDisplay:10.37,2013-03-26 20:34:00,
2013-03-26 15:39:00,65.3,24.3,30.24,NW,305,1.0,4.0,21,0.00,CLR,,0.00,WeatherDisplay:10.37,2013-03-26 20:39:00,
2013-03-26 15:44:00,65.5,24.5,30.24,West,270,3.5,3.5,21,0.00,CLR,,0.00,WeatherDisplay:10.37,2013-03-26 20:44:00,
2013-03-26 15:49:00,65.1,24.2,30.24,West,281,1.0,6.0,21,0.00,CLR,,0.00,WeatherDisplay:10.37,2013-03-26 20:49:00,
2013-03-26 15:54:00,65.5,24.5,30.24,West,271,1.0,6.0,21,0.00,CLR,,0.00,WeatherDisplay:10.37,2013-03-26 20:54:00,
2013-03-26 15:59:00,66.7,24.3,30.23,West,274,1.0,3.0,20,0.00,CLR,,0.00,WeatherDisplay:10.37,2013-03-26 20:59:00,
2013-03-26 16:04:00,65.8,24.7,30.23,NE,38,1.0,6.0,21,0.00,CLR,,0.00,WeatherDisplay:10.37,2013-03-26 21:04:00,
2013-03-26 16:09:00,65.5,24.5,30.23,NE,42,3.0,6.0,21,0.00,CLR,,0.00,WeatherDisplay:10.37,2013-03-26 21:09:00,
2013-03-26 16:14:00,65.5,24.5,30.23,NNW,340,3.0,6.0,21,0.00,CLR,,0.00,WeatherDisplay:10.37,2013-03-26 21:14:00,
2013-03-26 16:19:00,64.8,23.9,30.23,North,2,1.0,6.0,21,0.00,CLR,,0.00,WeatherDisplay:10.37,2013-03-26 21:19:00,
2013-03-26 16:24:00,65.8,24.8,30.23,West,262,1.0,5.0,21,0.00,CLR,,0.00,WeatherDisplay:10.37,2013-03-26 21:24:00,
2013-03-26 16:29:00,66.9,24.5,30.22,WNW,291,3.0,6.0,20,0.00,CLR,,0.00,WeatherDisplay:10.37,2013-03-26 21:29:00,
2013-03-26 16:34:00,66.6,23.0,30.22,West,274,3.0,6.0,19,0.00,CLR,,0.00,WeatherDisplay:10.37,2013-03-26 21:34:00,
2013-03-26 16:39:00,65.8,23.6,30.22,NW,315,2.0,6.0,20,0.00,CLR,,0.00,WeatherDisplay:10.37,2013-03-26 21:39:00,
2013-03-26 16:44:00,65.3,24.3,30.22,East,90,5.4,5.4,21,0.00,CLR,,0.00,WeatherDisplay:10.37,2013-03-26 21:44:00,
2013-03-26 16:49:00,64.5,23.7,30.22,NNE,14,0.0,6.0,21,0.00,CLR,,0.00,WeatherDisplay:10.37,2013-03-26 21:49:00,
2013-03-26 16:55:00,63.9,23.1,30.22,NW,315,4.6,4.6,21,0.00,CLR,,0.00,WeatherDisplay:10.37,2013-03-26 21:55:00,
2013-03-26 17:00:00,63.1,22.5,30.21,SW,225,3.5,3.5,21,0.00,CLR,,0.00,WeatherDisplay:10.37,2013-03-26 22:00:00,
2013-03-26 17:05:00,63.1,22.5,30.21,SW,225,2.3,2.3,21,0.00,CLR,,0.00,WeatherDisplay:10.37,2013-03-26 22:05:00,
2013-03-26 17:10:00,64.2,23.4,30.21,West,270,3.5,3.5,21,0.00,CLR,,0.00,WeatherDisplay:10.37,2013-03-26 22:10:00,
2013-03-26 17:16:00,65.3,24.3,30.21,West,270,5.8,5.8,21,0.00,CLR,,0.00,WeatherDisplay:10.37,2013-03-26 22:16:00,
2013-03-26 17:21:00,66.2,23.9,30.21,West,270,2.3,2.3,20,0.00,CLR,,0.00,WeatherDisplay:10.37,2013-03-26 22:21:00,
2013-03-26 17:26:00,68.2,24.3,30.21,West,270,1.1,0.0,19,0.00,CLR,,0.00,WeatherDisplay:10.37,2013-03-26 22:26:00,
2013-03-26 17:31:00,68.2,24.3,30.21,NW,315,3.5,3.5,19,0.00,CLR,,0.00,WeatherDisplay:10.37,2013-03-26 22:31:00,
2013-03-26 17:36:00,67.1,24.6,30.20,NE,45,3.5,3.5,20,0.00,CLR,,0.00,WeatherDisplay:10.37,2013-03-26 22:36:00,
2013-03-26 17:42:00,66.4,24.1,30.20,East,90,5.8,5.8,20,0.00,CLR,,0.00,WeatherDisplay:10.37,2013-03-26 22:42:00,
2013-03-26 17:47:00,65.1,24.2,30.20,West,270,3.5,3.5,21,0.00,CLR,,0.00,WeatherDisplay:10.37,2013-03-26 22:47:00,
2013-03-26 17:52:00,66.2,25.1,30.20,NNE,22,2.3,2.3,21,0.00,CLR,,0.00,WeatherDisplay:10.37,2013-03-26 22:52:00,
2013-03-26 17:57:00,65.3,25.4,30.20,East,90,3.5,3.5,22,0.00,CLR,,0.00,WeatherDisplay:10.37,2013-03-26 22:57:00,
2013-03-26 18:03:00,62.4,23.0,30.20,East,90,1.1,0.0,22,0.00,CLR,,0.00,WeatherDisplay:10.37,2013-03-26 23:03:00,
2013-03-26 18:08:00,61.5,23.3,30.20,SE,135,3.5,3.5,23,0.00,CLR,,0.00,WeatherDisplay:10.37,2013-03-26 23:08:00,
2013-03-26 18:13:00,61.3,23.2,30.20,West,270,4.6,4.6,23,0.00,CLR,,0.00,WeatherDisplay:10.37,2013-03-26 23:13:00,
2013-03-26 18:18:00,61.2,24.0,30.20,NE,45,2.3,2.3,24,0.00,CLR,,0.00,WeatherDisplay:10.37,2013-03-26 23:18:00,
2013-03-26 18:24:00,60.3,24.3,30.20,NE,45,3.5,3.5,25,0.00,CLR,,0.00,WeatherDisplay:10.37,2013-03-26 23:24:00,
2013-03-26 18:29:00,59.7,23.8,30.20,NE,45,2.3,2.3,25,0.00,CLR,,0.00,WeatherDisplay:10.37,2013-03-26 23:29:00,
2013-03-26 18:34:00,59.2,23.4,30.20,NE,53,0.0,2.0,25,0.00,CLR,,0.00,WeatherDisplay:10.37,2013-03-26 23:34:00,
2013-03-26 18:39:00,58.8,24.9,30.20,ENE,64,1.0,2.0,27,0.00,CLR,,0.00,WeatherDisplay:10.37,2013-03-26 23:39:00,
2013-03-26 18:44:00,58.3,25.3,30.20,ENE,71,1.0,2.0,28,0.00,CLR,,0.00,WeatherDisplay:10.37,2013-03-26 23:44:00,
2013-03-26 18:49:00,57.9,24.9,30.20,ENE,69,0.0,2.0,28,0.00,CLR,,0.00,WeatherDisplay:10.37,2013-03-26 23:49:00,
2013-03-26 18:54:00,57.6,25.5,30.20,ESE,112,1.0,2.0,29,0.00,CLR,,0.00,WeatherDisplay:10.37,2013-03-26 23:54:00,
2013-03-26 18:59:00,57.0,26.6,30.20,ESE,122,0.0,2.0,31,0.00,CLR,,0.00,WeatherDisplay:10.37,2013-03-26 23:59:00,
2013-03-26 19:04:00,57.0,26.6,30.20,ESE,105,1.0,2.0,31,0.00,CLR,,0.00,WeatherDisplay:10.37,2013-03-27 00:04:00,
2013-03-26 19:09:00,56.3,27.5,30.20,East,90,0.0,2.0,33,0.00,CLR,,0.00,WeatherDisplay:10.37,2013-03-27 00:09:00,
2013-03-26 19:14:00,55.7,27.0,30.20,East,90,0.0,0.0,33,0.00,CLR,,0.00,WeatherDisplay:10.37,2013-03-27 00:14:00,
2013-03-26 19:19:00,55.2,26.6,30.20,ESE,103,0.0,0.0,33,0.00,CLR,,0.00,WeatherDisplay:10.37,2013-03-27 00:19:00,
2013-03-26 19:24:00,54.6,26.0,30.20,SSE,155,0.0,1.0,33,0.00,CLR,,0.00,WeatherDisplay:10.37,2013-03-27 00:24:00,
2013-03-26 19:29:00,54.0,26.2,30.20,South,180,0.0,1.0,34,0.00,CLR,,0.00,WeatherDisplay:10.37,2013-03-27 00:29:00,
2013-03-26 19:34:00,53.4,27.8,30.20,South,180,0.0,0.0,37,0.00,CLR,,0.00,WeatherDisplay:10.37,2013-03-27 00:34:00,
2013-03-26 19:39:00,52.8,28.5,30.20,SE,136,0.0,1.0,39,0.00,CLR,,0.00,WeatherDisplay:10.37,2013-03-27 00:39:00,
2013-03-26 19:44:00,52.3,29.3,30.20,NE,53,0.0,0.0,41,0.00,CLR,,0.00,WeatherDisplay:10.37,2013-03-27 00:44:00,
2013-03-26 19:49:00,51.6,30.4,30.20,NE,45,0.0,0.0,44,0.00,CLR,,0.00,WeatherDisplay:10.37,2013-03-27 00:49:00,
2013-03-26 19:54:00,50.9,30.3,30.20,NE,45,0.0,0.0,45,0.00,CLR,,0.00,WeatherDisplay:10.37,2013-03-27 00:54:00,
2013-03-26 19:59:00,50.2,30.2,30.20,NE,45,0.0,0.0,46,0.00,CLR,,0.00,WeatherDisplay:10.37,2013-03-27 00:59:00,
2013-03-26 20:04:00,49.7,30.8,30.20,NE,45,0.0,1.0,48,0.00,CLR,,0.00,WeatherDisplay:10.37,2013-03-27 01:04:00,
2013-03-26 20:09:00,49.2,30.8,30.21,NE,38,0.0,1.0,49,0.00,CLR,,0.00,WeatherDisplay:10.37,2013-03-27 01:09:00,
2013-03-26 20:14:00,48.4,32.5,30.21,West,270,0.0,0.0,54,0.00,CLR,,0.00,WeatherDisplay:10.37,2013-03-27 01:14:00,
2013-03-26 20:19:00,47.8,32.4,30.21,West,267,0.0,0.0,55,0.00,CLR,,0.00,WeatherDisplay:10.37,2013-03-27 01:19:00,
2013-03-26 20:25:00,46.9,32.0,30.20,West,270,0.0,0.0,56,0.00,CLR,,0.00,WeatherDisplay:10.37,2013-03-27 01:25:00,
2013-03-26 20:30:00,46.6,32.1,30.20,West,270,0.0,0.0,57,0.00,CLR,,0.00,WeatherDisplay:10.37,2013-03-27 01:30:00,
2013-03-26 20:35:00,45.9,31.9,30.21,NW,315,0.0,0.0,58,0.00,CLR,,0.00,WeatherDisplay:10.37,2013-03-27 01:35:00,
2013-03-26 20:40:00,45.3,31.8,30.21,NW,315,0.0,0.0,59,0.00,CLR,,0.00,WeatherDisplay:10.37,2013-03-27 01:40:00,
2013-03-26 20:46:00,45.0,31.5,30.21,NW,315,0.0,0.0,59,0.00,CLR,,0.00,WeatherDisplay:10.37,2013-03-27 01:46:00,
2013-03-26 20:51:00,44.4,31.4,30.21,NW,315,0.0,0.0,60,0.00,CLR,,0.00,WeatherDisplay:10.37,2013-03-27 01:51:00,
2013-03-26 20:56:00,44.1,31.9,30.21,NW,315,0.0,0.0,62,0.00,CLR,,0.00,WeatherDisplay:10.37,2013-03-27 01:56:00,
2013-03-26 21:01:00,43.9,31.7,30.21,NW,315,0.0,0.0,62,0.00,CLR,,0.00,WeatherDisplay:10.37,2013-03-27 02:01:00,
2013-03-26 21:07:00,43.3,32.0,30.21,NW,315,0.0,0.0,64,0.00,CLR,,0.00,WeatherDisplay:10.37,2013-03-27 02:07:00,
2013-03-26 21:12:00,43.0,31.6,30.21,North,0,0.0,0.0,64,0.00,CLR,,0.00,WeatherDisplay:10.37,2013-03-27 02:12:00,
2013-03-26 21:17:00,42.8,31.8,30.21,North,0,0.0,0.0,65,0.00,CLR,,0.00,WeatherDisplay:10.37,2013-03-27 02:17:00,
2013-03-26 21:22:00,42.4,32.3,30.21,North,0,0.0,0.0,67,0.00,CLR,,0.00,WeatherDisplay:10.37,2013-03-27 02:22:00,
2013-03-26 21:27:00,41.9,31.7,30.21,West,270,0.0,0.0,67,0.00,CLR,,0.00,WeatherDisplay:10.37,2013-03-27 02:27:00,
2013-03-26 21:32:00,41.5,31.4,30.21,SE,135,1.1,0.0,67,0.00,CLR,,0.00,WeatherDisplay:10.37,2013-03-27 02:32:00,
2013-03-26 21:38:00,41.4,31.6,30.21,SE,135,0.0,0.0,68,0.00,CLR,,0.00,WeatherDisplay:10.37,2013-03-27 02:38:00,
2013-03-26 21:43:00,41.2,31.4,30.22,SE,135,0.0,0.0,68,0.00,CLR,,0.00,WeatherDisplay:10.37,2013-03-27 02:43:00,
2013-03-26 21:48:00,41.2,31.8,30.21,SE,135,0.0,0.0,69,0.00,CLR,,0.00,WeatherDisplay:10.37,2013-03-27 02:48:00,
2013-03-26 21:53:00,40.8,32.1,30.21,SE,135,0.0,0.0,71,0.00,CLR,,0.00,WeatherDisplay:10.37,2013-03-27 02:53:00,
2013-03-26 21:58:00,40.6,32.7,30.21,West,270,0.0,0.0,73,0.00,CLR,,0.00,WeatherDisplay:10.37,2013-03-27 02:58:00,
2013-03-26 22:04:00,40.3,33.0,30.22,West,270,0.0,0.0,75,0.00,CLR,,0.00,WeatherDisplay:10.37,2013-03-27 03:04:00,
2013-03-26 22:09:00,39.9,32.6,30.22,NE,45,0.0,0.0,75,0.00,CLR,,0.00,WeatherDisplay:10.37,2013-03-27 03:09:00,
2013-03-26 22:14:00,39.7,32.5,30.22,NE,45,0.0,0.0,75,0.00,CLR,,0.00,WeatherDisplay:10.37,2013-03-27 03:14:00,
2013-03-26 22:19:00,39.6,32.3,30.22,NE,45,0.0,0.0,75,0.00,CLR,,0.00,WeatherDisplay:10.37,2013-03-27 03:19:00,
2013-03-26 22:24:00,39.4,32.1,30.22,NE,45,0.0,0.0,75,0.00,CLR,,0.00,WeatherDisplay:10.37,2013-03-27 03:24:00,
2013-03-26 22:29:00,39.2,32.3,30.22,NE,45,0.0,1.0,76,0.00,CLR,,0.00,WeatherDisplay:10.37,2013-03-27 03:29:00,
2013-03-26 22:34:00,38.8,32.2,30.22,NE,45,0.0,0.0,77,0.00,CLR,,0.00,WeatherDisplay:10.37,2013-03-27 03:34:00,
2013-03-26 22:39:00,38.6,32.3,30.22,ENE,60,0.0,0.0,78,0.00,CLR,,0.00,WeatherDisplay:10.37,2013-03-27 03:39:00,
2013-03-26 22:44:00,38.3,32.3,30.22,SSE,156,0.0,0.0,79,0.00,CLR,,0.00,WeatherDisplay:10.37,2013-03-27 03:44:00,
2013-03-26 22:49:00,37.9,32.6,30.22,South,180,0.0,0.0,81,0.00,CLR,,0.00,WeatherDisplay:10.37,2013-03-27 03:49:00,
2013-03-26 22:54:00,37.6,32.9,30.22,South,180,0.0,0.0,83,0.00,CLR,,0.00,WeatherDisplay:10.37,2013-03-27 03:54:00,
2013-03-26 22:59:00,37.3,32.3,30.22,South,180,0.0,0.0,82,0.00,CLR,,0.00,WeatherDisplay:10.37,2013-03-27 03:59:00,
2013-03-26 23:00:00,37.2,31.6,30.22,South,180,0.0,0.0,80,0.00,CLR,,0.00,WeatherDisplay:10.37,2013-03-27 04:00:00,
2013-03-26 23:01:00,37.2,31.6,30.22,South,180,0.0,0.0,80,0.00,CLR,,0.00,WeatherDisplay:10.37,2013-03-27 04:01:00,
2013-03-26 23:07:00,36.9,31.6,30.22,South,180,1.1,0.0,81,0.00,CLR,,0.00,WeatherDisplay:10.37,2013-03-27 04:07:00,
2013-03-26 23:12:00,36.5,31.2,30.22,South,180,0.0,0.0,81,0.00,CLR,,0.00,WeatherDisplay:10.37,2013-03-27 04:12:00,
2013-03-26 23:17:00,36.3,31.0,30.22,South,180,0.0,0.0,81,0.00,CLR,,0.00,WeatherDisplay:10.37,2013-03-27 04:17:00,
2013-03-26 23:22:00,36.0,30.7,30.22,South,180,0.0,0.0,81,0.00,CLR,,0.00,WeatherDisplay:10.37,2013-03-27 04:22:00,
2013-03-26 23:28:00,35.8,30.5,30.22,South,180,0.0,0.0,81,0.00,CLR,,0.00,WeatherDisplay:10.37,2013-03-27 04:28:00,
2013-03-26 23:33:00,35.6,30.3,30.22,South,180,0.0,0.0,81,0.00,CLR,,0.00,WeatherDisplay:10.37,2013-03-27 04:33:00,
2013-03-26 23:38:00,35.2,30.3,30.22,South,180,1.1,0.0,82,0.00,CLR,,0.00,WeatherDisplay:10.37,2013-03-27 04:38:00,
2013-03-26 23:43:00,35.2,30.3,30.22,NE,45,1.1,0.0,82,0.00,CLR,,0.00,WeatherDisplay:10.37,2013-03-27 04:43:00,
2013-03-26 23:48:00,35.2,30.3,30.22,South,180,0.0,0.0,82,0.00,CLR,,0.00,WeatherDisplay:10.37,2013-03-27 04:48:00,
2013-03-26 23:53:00,35.1,30.1,30.22,SSW,202,0.0,0.0,82,0.00,CLR,,0.00,WeatherDisplay:10.37,2013-03-27 04:53:00,
2013-03-26 23:58:00,35.1,30.4,30.22,NW,315,0.0,0.0,83,0.00,CLR,,0.00,WeatherDisplay:10.37,2013-03-27 04:58:00,